Time;durP1;ratioP1;P1;durP2;ratioP2;P2;SDS_P1;SDS_P2;PMS_P1;PMS_P2;Temp;Humidity;BMP_temperature;BMP_pressure;BME280_temperature;BME280_humidity;BME280_pressure;Samples;Min_cycle;Max_cycle;Signal;HPM_P1;HPM_P2
2022/11/29 00:00:49;;;;;;;164.57;39.60;;;;;;;;;;4454003;32;20056;-73
2022/11/29 00:03:14;;;;;;;;;;;;;;;;;;4451791;32;20109;-73
2022/11/29 00:05:39;;;;;;;126.68;33.65;;;;;;;;;;4452945;32;19955;-73
2022/11/29 00:08:04;;;;;;;;;;;;;;;;;;4453675;32;20025;-73
2022/11/29 00:10:29;;;;;;;117.80;36.55;;;;;;;;;;4437463;32;19975;-73
2022/11/29 00:12:54;;;;;;;;;;;;;;;;;;4451594;32;20026;-73
2022/11/29 00:15:20;;;;;;;81.18;36.33;;;;;;;;;;4451570;32;19937;-73
2022/11/29 00:17:45;;;;;;;145.77;41.58;;;;;;;;;;4451963;32;20121;-73
2022/11/29 00:20:10;;;;;;;125.72;42.80;;;;;;;;;;4452987;32;20476;-73
2022/11/29 00:22:35;;;;;;;;;;;;;;;;;;4453280;32;20021;-73
2022/11/29 00:25:00;;;;;;;189.65;45.70;;;;;;;;;;4453105;32;19941;-73
2022/11/29 00:27:26;;;;;;;144.40;42.24;;;;;;;;;;4451207;32;20041;-72
2022/11/29 00:29:51;;;;;;;;;;;;;;;;;;4451619;32;20017;-73
2022/11/29 00:32:16;;;;;;;100.03;36.15;;;;;;;;;;4450945;32;20391;-73
2022/11/29 00:34:41;;;;;;;;;;;;;;;;;;4452488;32;20025;-72
2022/11/29 00:37:06;;;;;;;107.93;38.38;;;;;;;;;;4451193;32;19970;-72
2022/11/29 00:39:31;;;;;;;52.53;31.85;;;;;;;;;;4452476;32;20026;-73
2022/11/29 00:41:56;;;;;;;;;;;;;;;;;;4452913;32;20021;-73
2022/11/29 00:44:22;;;;;;;263.33;42.30;;;;;;;;;;4451015;32;19936;-72
2022/11/29 00:46:47;;;;;;;;;;;;;;;;;;4452861;32;20456;-73
2022/11/29 00:49:12;;;;;;;233.65;41.83;;;;;;;;;;4451069;32;19936;-72
2022/11/29 00:51:37;;;;;;;;;;;;;;;;;;4452139;32;20017;-73
2022/11/29 00:54:02;;;;;;;136.68;36.80;;;;;;;;;;4452773;32;19936;-73
2022/11/29 00:56:27;;;;;;;;;;;;;;;;;;4451582;32;20139;-72
2022/11/29 00:58:53;;;;;;;108.78;37.30;;;;;;;;;;4452681;32;20246;-72
2022/11/29 01:01:18;;;;;;;;;;;;;;;;;;4450370;32;20177;-73
2022/11/29 01:03:43;;;;;;;293.52;51.67;;;;;;;;;;4450855;32;19941;-73
2022/11/29 01:06:08;;;;;;;;;;;;;;;;;;4451837;32;20187;-73
2022/11/29 01:08:34;;;;;;;249.07;46.67;;;;;;;;;;4452397;32;19972;-72
2022/11/29 01:10:59;;;;;;;;;;;;;;;;;;4453018;32;20020;-73
2022/11/29 01:13:24;;;;;;;110.53;36.40;;;;;;;;;;4450587;32;20000;-73
2022/11/29 01:15:54;;;;;;;58.72;28.62;;;;;;;;;;4452359;32;20026;-72
2022/11/29 01:18:19;;;;;;;49.47;29.85;;;;;;;;;;4436369;32;20026;-73
2022/11/29 01:20:44;;;;;;;;;;;;;;;;;;4450819;32;20057;-72
2022/11/29 01:23:09;;;;;;;68.90;28.48;;;;;;;;;;4452770;32;19963;-72
2022/11/29 01:25:34;;;;;;;;;;;;;;;;;;4450430;32;20073;-72
2022/11/29 01:27:59;;;;;;;72.95;31.02;;;;;;;;;;4450842;32;19936;-73
2022/11/29 01:30:24;;;;;;;;;;;;;;;;;;4450733;32;20051;-72
2022/11/29 01:32:50;;;;;;;133.15;38.50;;;;;;;;;;4452245;32;19936;-72
2022/11/29 01:35:15;;;;;;;;;;;;;;;;;;4450540;32;20120;-72
2022/11/29 01:37:40;;;;;;;125.38;40.42;;;;;;;;;;4450228;32;20270;-74
2022/11/29 01:40:05;;;;;;;128.82;35.90;;;;;;;;;;4441293;26;20038;-72
2022/11/29 01:42:30;;;;;;;;;;;;;;;;;;4418276;32;20418;-73
2022/11/29 01:44:56;;;;;;;45.60;25.67;;;;;;;;;;4417652;32;20284;-72
2022/11/29 01:47:21;;;;;;;;;;;;;;;;;;4418951;32;20022;-72
2022/11/29 01:49:47;;;;;;;194.35;38.10;;;;;;;;;;4419724;32;19941;-72
2022/11/29 01:52:24;;;;;;;83.93;29.60;;;;;;;;;;4418489;32;20229;-72
2022/11/29 01:54:51;;;;;;;144.57;35.13;;;;;;;;;;4420068;32;20058;-72
2022/11/29 01:57:17;;;;;;;40.58;24.63;;;;;;;;;;4418404;32;20154;-72
2022/11/29 01:59:44;;;;;;;112.78;34.92;;;;;;;;;;4418099;32;20030;-72
2022/11/29 02:02:11;;;;;;;57.70;27.30;;;;;;;;;;4419273;32;20030;-72
2022/11/29 02:04:37;;;;;;;54.83;27.37;;;;;;;;;;4419085;32;20038;-72
2022/11/29 02:07:02;;;;;;;;;;;;;;;;;;4419957;32;20438;-73
2022/11/29 02:09:27;;;;;;;40.33;25.40;;;;;;;;;;4419842;32;19937;-73
2022/11/29 02:12:08;;;;;;;78.15;31.12;;;;;;;;;;4417432;32;20026;-72
2022/11/29 02:14:52;;;;;;;77.37;30.73;;;;;;;;;;4421698;32;20018;-72
2022/11/29 02:17:20;;;;;;;225.80;41.70;;;;;;;;;;4423855;32;20034;-74
2022/11/29 02:20:07;;;;;;;290.00;47.33;;;;;;;;;;4422911;32;20063;-71
2022/11/29 02:22:45;;;;;;;339.65;46.75;;;;;;;;;;4423191;32;20057;-73
2022/11/29 02:25:23;;;;;;;103.72;31.90;;;;;;;;;;4421822;32;20033;-72
2022/11/29 02:27:51;;;;;;;217.48;40.33;;;;;;;;;;4422981;32;20026;-72
2022/11/29 02:30:38;;;;;;;302.52;38.80;;;;;;;;;;4422050;32;20052;-72
2022/11/29 02:33:15;;;;;;;75.97;27.58;;;;;;;;;;4421955;32;20027;-72
2022/11/29 02:36:09;;;;;;;299.67;42.42;;;;;;;;;;4422896;32;20417;-72
2022/11/29 02:38:56;;;;;;;183.48;35.50;;;;;;;;;;4418280;32;20079;-72
2022/11/29 02:41:24;;;;;;;195.10;35.65;;;;;;;;;;4395970;32;20176;-72
2022/11/29 02:43:59;;;;;;;324.10;40.65;;;;;;;;;;4405445;32;20038;-72
2022/11/29 02:46:26;;;;;;;390.33;45.78;;;;;;;;;;4406553;32;20277;-72
2022/11/29 02:48:56;;;;;;;224.88;34.60;;;;;;;;;;4406119;32;20018;-72
2022/11/29 02:51:28;;;;;;;167.50;33.45;;;;;;;;;;4406538;32;20026;-72
2022/11/29 02:54:00;;;;;;;243.25;40.97;;;;;;;;;;4406337;32;20053;-72
2022/11/29 02:56:35;;;;;;;166.75;38.97;;;;;;;;;;4406557;32;20102;-73
2022/11/29 02:59:01;;;;;;;227.90;38.83;;;;;;;;;;4460535;27;20074;-81
2022/11/29 03:01:45;;;;;;;268.60;39.80;;;;;;;;;;4431813;32;20424;-82
2022/11/29 03:04:13;;;;;;;343.98;48.72;;;;;;;;;;4425996;32;20038;-81
2022/11/29 03:06:42;;;;;;;204.23;41.35;;;;;;;;;;4421233;32;20068;-81
2022/11/29 03:09:26;;;;;;;338.80;45.05;;;;;;;;;;4420591;32;20046;-81
2022/11/29 03:11:59;;;;;;;338.92;43.87;;;;;;;;;;4421131;32;20060;-82
2022/11/29 03:14:29;;;;;;;275.38;40.72;;;;;;;;;;4421925;32;20057;-82
2022/11/29 03:17:10;;;;;;;194.40;38.70;;;;;;;;;;4422623;32;20063;-82
2022/11/29 03:19:38;;;;;;;80.90;31.77;;;;;;;;;;4425251;32;20045;-82
2022/11/29 03:22:03;;;;;;;458.75;60.95;;;;;;;;;;4426811;32;20045;-82
2022/11/29 03:24:28;;;;;;;;;;;;;;;;;;4426314;32;20082;-83
2022/11/29 03:27:05;;;;;;;130.10;38.03;;;;;;;;;;4421595;32;19996;-83
2022/11/29 03:29:39;;;;;;;130.20;31.87;;;;;;;;;;4420955;32;20153;-82
2022/11/29 03:32:14;;;;;;;614.37;64.93;;;;;;;;;;4420820;32;20060;-82
2022/11/29 03:34:49;;;;;;;392.20;53.47;;;;;;;;;;4421876;32;20034;-81
2022/11/29 03:37:18;;;;;;;251.50;39.47;;;;;;;;;;4432906;32;20398;-81
2022/11/29 03:39:43;;;;;;;285.42;43.28;;;;;;;;;;4420820;32;20057;-81
2022/11/29 03:42:09;;;;;;;;;;;;;;;;;;4421180;32;20095;-82
2022/11/29 03:44:38;;;;;;;356.92;47.03;;;;;;;;;;4420439;32;19929;-82
2022/11/29 03:47:03;;;;;;;456.58;59.35;;;;;;;;;;4420008;32;20097;-82
2022/11/29 03:49:29;;;;;;;;;;;;;;;;;;4425587;32;20498;-82
2022/11/29 03:52:13;;;;;;;220.50;41.00;;;;;;;;;;4436176;32;20266;-82
2022/11/29 03:54:45;;;;;;;377.08;50.22;;;;;;;;;;4436520;32;20033;-82
2022/11/29 03:57:12;;;;;;;449.17;58.50;;;;;;;;;;4435091;32;20029;-83
2022/11/29 03:59:48;;;;;;;227.57;45.17;;;;;;;;;;4435209;32;20067;-82
2022/11/29 04:02:16;;;;;;;177.68;40.60;;;;;;;;;;4435768;32;20033;-82
2022/11/29 04:05:05;;;;;;;193.23;41.53;;;;;;;;;;4435823;32;20125;-82
2022/11/29 04:07:49;;;;;;;350.35;46.37;;;;;;;;;;4434844;32;20085;-82
2022/11/29 04:10:33;;;;;;;201.98;40.17;;;;;;;;;;4436551;32;20033;-82
2022/11/29 04:13:16;;;;;;;255.45;46.03;;;;;;;;;;4435129;32;20135;-82
2022/11/29 04:16:01;;;;;;;266.05;45.28;;;;;;;;;;4421902;32;20053;-82
2022/11/29 04:18:39;;;;;;;275.80;49.72;;;;;;;;;;4435164;32;20045;-82
2022/11/29 04:21:13;;;;;;;146.48;44.45;;;;;;;;;;4435740;32;20063;-82
2022/11/29 04:23:57;;;;;;;87.95;34.72;;;;;;;;;;4435394;32;20053;-82
2022/11/29 04:26:37;;;;;;;199.23;47.22;;;;;;;;;;4434691;32;20029;-82
2022/11/29 04:29:07;;;;;;;144.00;41.33;;;;;;;;;;4435357;32;20034;-82
2022/11/29 04:31:50;;;;;;;114.25;38.05;;;;;;;;;;4435389;32;20567;-82
2022/11/29 04:34:15;;;;;;;165.12;43.38;;;;;;;;;;4435026;32;20033;-83
2022/11/29 04:36:40;;;;;;;;;;;;;;;;;;4428017;27;20068;-83
2022/11/29 04:39:27;;;;;;;188.00;43.03;;;;;;;;;;4419690;32;19945;-83
2022/11/29 04:41:53;;;;;;;;;;;;;;;;;;4419541;32;20518;-83
2022/11/29 04:44:37;;;;;;;115.80;35.22;;;;;;;;;;4419885;32;19971;-83
2022/11/29 04:47:14;;;;;;;159.52;43.10;;;;;;;;;;4418938;32;20229;-83
2022/11/29 04:49:52;;;;;;;119.32;39.45;;;;;;;;;;4419412;32;20043;-82
2022/11/29 04:52:23;;;;;;;157.95;41.65;;;;;;;;;;4419873;32;20051;-83
2022/11/29 04:54:58;;;;;;;131.63;44.90;;;;;;;;;;4419650;32;20064;-81
2022/11/29 04:57:40;;;;;;;146.00;43.27;;;;;;;;;;4419355;32;20046;-82
2022/11/29 05:00:08;;;;;;;141.15;39.53;;;;;;;;;;4419436;32;20108;-83
2022/11/29 05:02:46;;;;;;;142.82;42.10;;;;;;;;;;4419064;32;20025;-83
2022/11/29 05:05:30;;;;;;;138.52;40.63;;;;;;;;;;4419675;32;20045;-83
2022/11/29 05:08:15;;;;;;;113.25;35.28;;;;;;;;;;4420488;32;20034;-83
2022/11/29 05:10:55;;;;;;;142.55;43.30;;;;;;;;;;4420786;32;20090;-82
2022/11/29 05:13:29;;;;;;;114.45;37.33;;;;;;;;;;4422393;32;20021;-82
2022/11/29 05:16:06;;;;;;;207.37;47.90;;;;;;;;;;4421731;32;20060;-83
2022/11/29 05:18:44;;;;;;;203.80;42.60;;;;;;;;;;4422726;32;20132;-82
2022/11/29 05:21:21;;;;;;;225.40;47.97;;;;;;;;;;4421213;32;20360;-81
2022/11/29 05:23:46;;;;;;;315.87;52.90;;;;;;;;;;4420539;32;20029;-83
2022/11/29 05:26:11;;;;;;;;;;;;;;;;;;4421845;32;20134;-83
2022/11/29 05:28:48;;;;;;;230.68;48.25;;;;;;;;;;4423211;32;19951;-83
2022/11/29 05:31:39;;;;;;;154.85;45.97;;;;;;;;;;4424037;32;20090;-83
2022/11/29 05:36:34;;;;;;;219.70;44.13;;;;;;;;;;4393188;32;20100;-74
2022/11/29 05:39:08;;;;;;;143.12;44.08;;;;;;;;;;4389711;32;20035;-72
2022/11/29 05:41:39;;;;;;;190.80;47.00;;;;;;;;;;4416879;32;20110;-71
2022/11/29 05:44:23;;;;;;;254.57;56.55;;;;;;;;;;4421297;32;20052;-72
2022/11/29 05:46:59;;;;;;;300.38;55.95;;;;;;;;;;4421589;32;20061;-73
2022/11/29 05:49:32;;;;;;;260.73;56.28;;;;;;;;;;4422797;32;20045;-72
2022/11/29 05:52:12;;;;;;;242.65;56.85;;;;;;;;;;4408085;32;20416;-73
2022/11/29 05:54:56;;;;;;;277.67;78.78;;;;;;;;;;4392690;32;20027;-73
2022/11/29 05:57:30;;;;;;;494.40;138.82;;;;;;;;;;4393716;32;20084;-73
2022/11/29 05:59:56;;;;;;;414.45;102.75;;;;;;;;;;4394063;32;20023;-73
2022/11/29 06:02:21;;;;;;;;;;;;;;;;;;4392844;32;20023;-73
2022/11/29 06:04:46;;;;;;;234.40;52.03;;;;;;;;;;4392259;32;19945;-73
2022/11/29 06:07:15;;;;;;;200.55;48.33;;;;;;;;;;4392437;32;20408;-74
2022/11/29 06:09:56;;;;;;;172.95;49.20;;;;;;;;;;4393436;32;20030;-73
2022/11/29 06:12:22;;;;;;;239.23;54.67;;;;;;;;;;4394135;32;20053;-74
2022/11/29 06:15:07;;;;;;;339.92;58.20;;;;;;;;;;4393839;32;20367;-73
2022/11/29 06:17:37;;;;;;;184.50;49.00;;;;;;;;;;4392190;32;20022;-74
2022/11/29 06:20:22;;;;;;;311.77;54.83;;;;;;;;;;4392155;32;20023;-73
2022/11/29 06:23:00;;;;;;;404.17;66.32;;;;;;;;;;4390467;32;20407;-73
2022/11/29 06:25:46;;;;;;;251.70;49.40;;;;;;;;;;4391670;32;20022;-74
2022/11/29 06:28:14;;;;;;;356.77;56.17;;;;;;;;;;4396238;32;20038;-72
2022/11/29 06:30:45;;;;;;;370.73;65.93;;;;;;;;;;4406138;32;20081;-73
2022/11/29 06:33:16;;;;;;;280.20;55.42;;;;;;;;;;4403823;32;20052;-74
2022/11/29 06:36:08;;;;;;;283.92;59.97;;;;;;;;;;4406989;32;20409;-74
2022/11/29 06:38:34;;;;;;;309.25;61.75;;;;;;;;;;4407493;32;20037;-73
2022/11/29 06:40:59;;;;;;;;;;;;;;;;;;4406874;32;20083;-73
2022/11/29 06:43:24;;;;;;;386.37;60.38;;;;;;;;;;4406856;32;19934;-73
2022/11/29 06:46:02;;;;;;;453.58;64.75;;;;;;;;;;4407967;32;20437;-72
2022/11/29 06:48:31;;;;;;;444.45;61.00;;;;;;;;;;4406929;32;20030;-72
2022/11/29 06:51:06;;;;;;;304.13;49.67;;;;;;;;;;4407477;32;20068;-73
2022/11/29 06:53:31;;;;;;;352.42;63.28;;;;;;;;;;4407910;32;20365;-72
2022/11/29 06:55:59;;;;;;;446.66;70.16;;;;;;;;;;4407708;32;20027;-72
2022/11/29 06:58:31;;;;;;;320.92;72.20;;;;;;;;;;4407152;32;20134;-75
2022/11/29 07:01:06;;;;;;;376.73;66.32;;;;;;;;;;4407003;32;20293;-72
2022/11/29 07:03:31;;;;;;;248.80;55.85;;;;;;;;;;4405698;32;20370;-73
2022/11/29 07:05:56;;;;;;;;;;;;;;;;;;4407878;32;20031;-73
2022/11/29 07:08:22;;;;;;;187.40;51.47;;;;;;;;;;4405295;32;19949;-72
2022/11/29 07:10:48;;;;;;;;;;;;;;;;;;4406834;32;20052;-73
2022/11/29 07:13:14;;;;;;;404.58;75.05;;;;;;;;;;4407195;32;20318;-73
2022/11/29 07:15:39;;;;;;;;;;;;;;;;;;4406215;32;20049;-74
2022/11/29 07:18:13;;;;;;;329.06;59.88;;;;;;;;;;4407105;32;19937;-73
2022/11/29 07:20:39;;;;;;;393.20;71.18;;;;;;;;;;4403794;32;20122;-74
2022/11/29 07:23:04;;;;;;;;;;;;;;;;;;4405888;32;20023;-73
2022/11/29 07:25:41;;;;;;;352.08;62.83;;;;;;;;;;4405858;32;19942;-73
2022/11/29 07:28:12;;;;;;;531.65;79.22;;;;;;;;;;4406123;32;20159;-73
2022/11/29 07:30:53;;;;;;;384.87;67.12;;;;;;;;;;4406283;32;20018;-73
2022/11/29 07:33:42;;;;;;;381.42;64.62;;;;;;;;;;4407489;32;20434;-73
2022/11/29 07:36:17;;;;;;;459.98;68.97;;;;;;;;;;4405758;32;20091;-72
2022/11/29 07:38:45;;;;;;;212.32;49.42;;;;;;;;;;4407402;32;20100;-75
2022/11/29 07:41:23;;;;;;;275.60;57.75;;;;;;;;;;4405309;32;20052;-74
2022/11/29 07:43:58;;;;;;;173.00;47.78;;;;;;;;;;4406084;32;20080;-72
2022/11/29 07:46:24;;;;;;;446.20;71.00;;;;;;;;;;4405818;32;20026;-73
2022/11/29 07:48:49;;;;;;;396.10;72.53;;;;;;;;;;4406175;32;20093;-73
2022/11/29 07:51:14;;;;;;;;;;;;;;;;;;4400184;32;20104;-73
2022/11/29 07:53:41;;;;;;;325.52;62.60;;;;;;;;;;4398606;32;19933;-73
2022/11/29 07:56:08;;;;;;;278.65;59.67;;;;;;;;;;4406938;32;20108;-72
2022/11/29 07:58:33;;;;;;;342.42;58.53;;;;;;;;;;4406111;32;20043;-72
2022/11/29 08:00:58;;;;;;;;;;;;;;;;;;4405734;32;20494;-73
2022/11/29 08:03:23;;;;;;;501.98;75.72;;;;;;;;;;4406055;32;19934;-73
2022/11/29 08:05:48;;;;;;;476.05;71.22;;;;;;;;;;4404926;32;20103;-73
2022/11/29 08:08:13;;;;;;;;;;;;;;;;;;4407016;32;20026;-73
2022/11/29 08:10:39;;;;;;;402.40;60.70;;;;;;;;;;4405761;32;20266;-73
2022/11/29 08:13:04;;;;;;;;;;;;;;;;;;4405780;32;20027;-73
2022/11/29 08:15:29;;;;;;;148.20;41.42;;;;;;;;;;4406734;32;19938;-73
2022/11/29 08:17:54;;;;;;;272.12;53.75;;;;;;;;;;4404719;32;20056;-72
2022/11/29 08:20:19;;;;;;;;;;;;;;;;;;4404138;32;20022;-73
2022/11/29 08:22:52;;;;;;;253.98;53.65;;;;;;;;;;4404562;32;19949;-74
2022/11/29 08:25:17;;;;;;;188.85;47.00;;;;;;;;;;4393927;32;20431;-73
2022/11/29 08:27:42;;;;;;;;;;;;;;;;;;4390045;32;20030;-73
2022/11/29 08:30:07;;;;;;;322.67;53.47;;;;;;;;;;4390229;32;19933;-73
2022/11/29 08:32:33;;;;;;;359.92;58.67;;;;;;;;;;4390316;32;20104;-73
2022/11/29 08:34:58;;;;;;;;;;;;;;;;;;4390384;32;20500;-73
2022/11/29 08:37:23;;;;;;;260.83;54.83;;;;;;;;;;4389112;32;19972;-73
2022/11/29 08:39:48;;;;;;;303.70;55.60;;;;;;;;;;4390883;32;20176;-72
2022/11/29 08:42:13;;;;;;;284.10;55.58;;;;;;;;;;4390860;32;20082;-72
2022/11/29 08:44:39;;;;;;;;;;;;;;;;;;4390181;32;20034;-72
2022/11/29 08:50:00;;;;;;;291.98;59.70;;;;;;;;;;4390287;32;20358;-73
2022/11/29 08:55:13;;;;;;;302.45;56.63;;;;;;;;;;4406062;32;20045;-73
2022/11/29 08:57:38;;;;;;;;;;;;;;;;;;4405548;32;20030;-73
2022/11/29 09:00:04;;;;;;;233.82;54.63;;;;;;;;;;4403817;32;19938;-73
2022/11/29 09:02:29;;;;;;;209.20;52.15;;;;;;;;;;4404773;32;20458;-73
2022/11/29 09:04:54;;;;;;;;;;;;;;;;;;4406316;32;20214;-73
2022/11/29 09:07:20;;;;;;;178.27;46.90;;;;;;;;;;4404106;32;19968;-74
2022/11/29 09:09:45;;;;;;;190.65;48.42;;;;;;;;;;4403046;32;20042;-74
2022/11/29 09:12:10;;;;;;;;;;;;;;;;;;4405006;32;20429;-74
2022/11/29 09:14:35;;;;;;;250.25;52.65;;;;;;;;;;4405860;32;19937;-73
2022/11/29 09:17:00;;;;;;;140.23;40.95;;;;;;;;;;4405273;32;20103;-73
2022/11/29 09:19:25;;;;;;;;;;;;;;;;;;4406612;32;20169;-72
2022/11/29 09:21:51;;;;;;;194.48;48.38;;;;;;;;;;4391621;32;19938;-73
2022/11/29 09:24:17;;;;;;;155.57;45.03;;;;;;;;;;4395905;32;20060;-73
2022/11/29 09:26:45;;;;;;;310.23;55.67;;;;;;;;;;4395088;32;20387;-73
2022/11/29 09:29:11;;;;;;;153.52;43.60;;;;;;;;;;4390278;32;20027;-73
2022/11/29 09:31:36;;;;;;;;;;;;;;;;;;4390906;32;20026;-72
2022/11/29 09:34:01;;;;;;;215.23;53.13;;;;;;;;;;4387651;32;19968;-74
2022/11/29 09:36:26;;;;;;;;;;;;;;;;;;4389327;32;20583;-72
2022/11/29 09:38:51;;;;;;;177.48;45.53;;;;;;;;;;4389633;32;20299;-74
2022/11/29 09:41:16;;;;;;;;;;;;;;;;;;4390673;32;20039;-73
2022/11/29 09:43:53;;;;;;;189.73;48.10;;;;;;;;;;4389953;32;20311;-73
2022/11/29 09:46:22;;;;;;;198.27;47.95;;;;;;;;;;4389623;32;20134;-74
2022/11/29 09:49:05;;;;;;;155.52;41.60;;;;;;;;;;4390472;32;20030;-73
2022/11/29 09:51:37;;;;;;;106.12;36.17;;;;;;;;;;4399274;32;20105;-72
2022/11/29 09:54:25;;;;;;;175.05;45.55;;;;;;;;;;4403492;32;20049;-74
2022/11/29 09:56:52;;;;;;;253.40;47.62;;;;;;;;;;4403688;32;20035;-74
2022/11/29 09:59:20;;;;;;;174.25;39.53;;;;;;;;;;4403322;32;20424;-72
2022/11/29 10:01:50;;;;;;;111.07;36.83;;;;;;;;;;4404507;32;20143;-73
2022/11/29 10:04:21;;;;;;;221.40;46.28;;;;;;;;;;4404196;32;20053;-72
2022/11/29 10:06:53;;;;;;;99.65;32.05;;;;;;;;;;4405590;32;20034;-73
2022/11/29 10:09:25;;;;;;;172.75;40.38;;;;;;;;;;4404040;32;20078;-73
2022/11/29 10:11:59;;;;;;;180.77;43.30;;;;;;;;;;4403645;32;20034;-74
2022/11/29 10:14:32;;;;;;;114.35;35.33;;;;;;;;;;4404752;32;20328;-74
2022/11/29 10:17:04;;;;;;;99.65;34.67;;;;;;;;;;4403428;32;20157;-73
2022/11/29 10:19:32;;;;;;;303.37;44.83;;;;;;;;;;4404158;32;20313;-74
2022/11/29 10:22:03;;;;;;;113.45;34.65;;;;;;;;;;4403064;32;20030;-74
2022/11/29 10:24:30;;;;;;;131.95;37.83;;;;;;;;;;4405559;32;20061;-73
2022/11/29 10:26:55;;;;;;;149.70;38.38;;;;;;;;;;4402115;32;20498;-73
2022/11/29 10:29:20;;;;;;;;;;;;;;;;;;4404178;32;20026;-73
2022/11/29 10:31:48;;;;;;;112.60;37.05;;;;;;;;;;4404575;32;19934;-72
2022/11/29 10:34:20;;;;;;;115.78;33.67;;;;;;;;;;4406538;32;20083;-75
2022/11/29 10:36:51;;;;;;;76.97;31.90;;;;;;;;;;4407420;32;20034;-73
2022/11/29 10:39:24;;;;;;;140.02;38.88;;;;;;;;;;4408003;32;20068;-74
2022/11/29 10:41:52;;;;;;;181.57;38.90;;;;;;;;;;4404864;32;20054;-73
2022/11/29 10:44:19;;;;;;;114.95;37.08;;;;;;;;;;4408018;32;20068;-73
2022/11/29 10:46:44;;;;;;;110.68;36.53;;;;;;;;;;4406338;32;20407;-74
2022/11/29 10:49:09;;;;;;;;;;;;;;;;;;4406926;32;20433;-73
2022/11/29 10:51:34;;;;;;;245.15;48.20;;;;;;;;;;4406777;32;19949;-74
2022/11/29 10:54:18;;;;;;;129.20;40.95;;;;;;;;;;4407001;32;20390;-74
2022/11/29 10:56:44;;;;;;;86.57;35.25;;;;;;;;;;4408057;32;20375;-73
2022/11/29 10:59:10;;;;;;;;;;;;;;;;;;4407554;32;20481;-74
2022/11/29 11:01:37;;;;;;;72.72;30.65;;;;;;;;;;4407694;32;19961;-74
2022/11/29 11:04:06;;;;;;;70.57;32.35;;;;;;;;;;4406578;32;20100;-74
2022/11/29 11:06:55;;;;;;;61.20;29.37;;;;;;;;;;4406210;32;20042;-73
2022/11/29 11:09:26;;;;;;;67.50;30.85;;;;;;;;;;4405549;32;20431;-73
2022/11/29 11:11:56;;;;;;;77.03;33.17;;;;;;;;;;4405737;32;20079;-74
2022/11/29 11:14:26;;;;;;;75.70;31.83;;;;;;;;;;4406976;32;20049;-73
2022/11/29 11:16:52;;;;;;;88.75;35.60;;;;;;;;;;4405859;32;20022;-73
2022/11/29 11:19:31;;;;;;;82.53;37.65;;;;;;;;;;4407845;32;20030;-74
2022/11/29 11:21:57;;;;;;;118.97;39.28;;;;;;;;;;4392778;32;20031;-74
2022/11/29 11:24:27;;;;;;;104.43;34.88;;;;;;;;;;4397442;32;20023;-73
2022/11/29 11:26:52;;;;;;;94.57;35.50;;;;;;;;;;4406898;32;20061;-73
2022/11/29 11:29:18;;;;;;;;;;;;;;;;;;4407580;32;20054;-74
2022/11/29 11:31:49;;;;;;;94.25;36.03;;;;;;;;;;4405787;32;19934;-74
2022/11/29 11:34:33;;;;;;;113.90;37.03;;;;;;;;;;4404547;32;20100;-74
2022/11/29 11:37:13;;;;;;;106.32;39.45;;;;;;;;;;4406400;32;20493;-74
2022/11/29 11:39:39;;;;;;;80.95;35.97;;;;;;;;;;4406530;32;20123;-74
2022/11/29 11:44:51;;;;;;;67.75;28.25;;;;;;;;;;4407403;32;19960;-73
2022/11/29 11:47:18;;;;;;;62.95;29.42;;;;;;;;;;4405881;32;20061;-74
2022/11/29 11:49:58;;;;;;;80.87;33.65;;;;;;;;;;4405822;32;20031;-74
2022/11/29 11:52:26;;;;;;;74.28;33.38;;;;;;;;;;4407510;32;20052;-73
2022/11/29 11:54:53;;;;;;;81.00;34.90;;;;;;;;;;4405564;32;20023;-74
2022/11/29 11:57:19;;;;;;;79.05;35.00;;;;;;;;;;4406666;32;20506;-73
2022/11/29 11:59:48;;;;;;;77.37;35.97;;;;;;;;;;4406482;32;20367;-73
2022/11/29 12:02:27;;;;;;;76.82;33.83;;;;;;;;;;4405664;32;20079;-73
2022/11/29 12:04:57;;;;;;;67.32;32.40;;;;;;;;;;4393495;32;20392;-73
2022/11/29 12:07:34;;;;;;;81.50;40.65;;;;;;;;;;4389868;32;20358;-73
2022/11/29 12:10:02;;;;;;;59.15;31.02;;;;;;;;;;4390727;32;20424;-74
2022/11/29 12:12:32;;;;;;;65.97;30.80;;;;;;;;;;4389734;32;20043;-74
2022/11/29 12:15:09;;;;;;;49.03;28.70;;;;;;;;;;4391770;32;20053;-74
2022/11/29 12:17:37;;;;;;;62.85;28.70;;;;;;;;;;4393666;32;20126;-74
2022/11/29 12:20:24;;;;;;;56.20;31.08;;;;;;;;;;4396418;32;20377;-73
2022/11/29 12:22:52;;;;;;;58.63;29.70;;;;;;;;;;4405331;32;20050;-73
2022/11/29 12:25:23;;;;;;;57.10;30.35;;;;;;;;;;4403081;32;20113;-73
2022/11/29 12:27:48;;;;;;;56.08;28.20;;;;;;;;;;4406195;32;20454;-74
2022/11/29 12:30:14;;;;;;;;;;;;;;;;;;4406124;32;20026;-73
2022/11/29 12:32:56;;;;;;;75.32;27.35;;;;;;;;;;4398201;32;19980;-73
2022/11/29 12:35:37;;;;;;;50.25;24.73;;;;;;;;;;4390299;32;20059;-73
2022/11/29 12:38:19;;;;;;;50.90;25.85;;;;;;;;;;4390209;32;20030;-73
2022/11/29 12:40:44;;;;;;;78.97;33.42;;;;;;;;;;4389973;32;20077;-73
2022/11/29 12:43:09;;;;;;;;;;;;;;;;;;4391157;32;20392;-72
2022/11/29 12:45:47;;;;;;;95.93;31.52;;;;;;;;;;4391345;32;19981;-72
2022/11/29 12:48:29;;;;;;;72.82;30.23;;;;;;;;;;4390736;32;20145;-72
2022/11/29 12:50:58;;;;;;;69.80;31.62;;;;;;;;;;4390359;32;20036;-74
2022/11/29 12:53:26;;;;;;;36.30;25.02;;;;;;;;;;4390495;32;20061;-74
2022/11/29 12:55:58;;;;;;;116.47;30.35;;;;;;;;;;4388831;32;20052;-73
2022/11/29 12:58:39;;;;;;;82.15;28.50;;;;;;;;;;4392945;32;20100;-74
2022/11/29 13:01:16;;;;;;;69.18;30.37;;;;;;;;;;4393547;32;20416;-74
2022/11/29 13:03:59;;;;;;;77.45;30.73;;;;;;;;;;4390680;32;20087;-73
2022/11/29 13:06:48;;;;;;;68.78;25.42;;;;;;;;;;4388560;32;20093;-75
2022/11/29 13:09:32;;;;;;;84.47;34.72;;;;;;;;;;4391511;32;20031;-73
2022/11/29 13:12:01;;;;;;;45.80;26.35;;;;;;;;;;4389277;32;20057;-73
2022/11/29 13:14:52;;;;;;;114.07;26.62;;;;;;;;;;4388434;32;20022;-74
2022/11/29 13:17:26;;;;;;;110.53;27.77;;;;;;;;;;4388628;32;20031;-72
2022/11/29 13:19:57;;;;;;;51.70;23.17;;;;;;;;;;4389199;32;20069;-73
2022/11/29 13:22:24;;;;;;;68.28;27.55;;;;;;;;;;4390164;32;20023;-73
2022/11/29 13:24:52;;;;;;;42.58;22.92;;;;;;;;;;4389369;32;20048;-73
2022/11/29 13:27:21;;;;;;;98.70;27.65;;;;;;;;;;4389247;32;20046;-74
2022/11/29 13:29:47;;;;;;;64.50;26.75;;;;;;;;;;4388739;32;20438;-74
2022/11/29 13:32:12;;;;;;;;;;;;;;;;;;4390639;32;20026;-74
2022/11/29 13:34:41;;;;;;;48.25;25.20;;;;;;;;;;4400195;32;19964;-74
2022/11/29 13:37:09;;;;;;;227.73;32.15;;;;;;;;;;4405531;32;20329;-73
2022/11/29 13:39:40;;;;;;;67.28;26.55;;;;;;;;;;4402382;32;20014;-73
2022/11/29 13:42:08;;;;;;;91.55;32.72;;;;;;;;;;4404490;32;20027;-74
2022/11/29 13:44:33;;;;;;;66.35;29.73;;;;;;;;;;4404949;32;20034;-73
2022/11/29 13:46:58;;;;;;;;;;;;;;;;;;4404800;32;20104;-73
2022/11/29 13:49:42;;;;;;;70.93;28.25;;;;;;;;;;4403789;32;20294;-73
2022/11/29 13:52:14;;;;;;;81.78;28.92;;;;;;;;;;4405577;32;20467;-73
2022/11/29 13:54:39;;;;;;;78.95;28.55;;;;;;;;;;4389197;32;20426;-74
2022/11/29 13:57:04;;;;;;;;;;;;;;;;;;4390062;32;20027;-74
2022/11/29 13:59:31;;;;;;;90.50;32.13;;;;;;;;;;4395078;32;19976;-74
2022/11/29 14:01:57;;;;;;;97.15;36.38;;;;;;;;;;4395184;32;20461;-74
2022/11/29 14:04:24;;;;;;;143.50;33.60;;;;;;;;;;4399995;32;20053;-72
2022/11/29 14:06:59;;;;;;;72.25;28.92;;;;;;;;;;4405402;32;20058;-73
2022/11/29 14:09:26;;;;;;;91.72;33.42;;;;;;;;;;4405229;32;20052;-73
2022/11/29 14:12:17;;;;;;;96.07;32.88;;;;;;;;;;4406659;32;20455;-73
2022/11/29 14:14:48;;;;;;;87.45;32.45;;;;;;;;;;4406558;32;20022;-73
2022/11/29 14:17:25;;;;;;;126.55;40.08;;;;;;;;;;4406724;32;20042;-73
2022/11/29 14:19:50;;;;;;;146.18;42.40;;;;;;;;;;4407160;32;20030;-73
2022/11/29 14:22:15;;;;;;;;;;;;;;;;;;4408458;32;20065;-71
2022/11/29 14:24:41;;;;;;;122.70;32.28;;;;;;;;;;4406792;32;19938;-73
2022/11/29 14:27:06;;;;;;;;;;;;;;;;;;4406228;32;20403;-73
2022/11/29 14:29:51;;;;;;;50.42;20.80;;;;;;;;;;4408171;32;19956;-72
2022/11/29 14:32:35;;;;;;;45.25;22.05;;;;;;;;;;4407018;32;20386;-72
2022/11/29 14:35:11;;;;;;;69.65;23.05;;;;;;;;;;4407795;32;20156;-73
2022/11/29 14:37:57;;;;;;;37.85;22.10;;;;;;;;;;4407581;32;20418;-73
2022/11/29 14:40:26;;;;;;;53.70;26.25;;;;;;;;;;4407269;32;20317;-73
2022/11/29 14:42:51;;;;;;;42.95;24.33;;;;;;;;;;4404824;32;20030;-73
2022/11/29 14:45:16;;;;;;;;;;;;;;;;;;4405887;32;20056;-73
2022/11/29 14:47:48;;;;;;;123.70;36.20;;;;;;;;;;4404543;32;20266;-73
2022/11/29 14:50:28;;;;;;;142.50;33.67;;;;;;;;;;4407292;32;20018;-73
2022/11/29 14:52:53;;;;;;;100.15;34.55;;;;;;;;;;4407728;32;20390;-73
2022/11/29 14:55:18;;;;;;;;;;;;;;;;;;4406919;32;20049;-73
2022/11/29 14:57:50;;;;;;;94.93;36.30;;;;;;;;;;4405475;32;19937;-73
2022/11/29 15:00:23;;;;;;;81.75;32.50;;;;;;;;;;4408205;32;20026;-72
2022/11/29 15:03:07;;;;;;;149.80;39.08;;;;;;;;;;4405362;32;20152;-72